Terminal Aerodrome Forecast
Issued by NWS Binghamton, NY

Home | Current Version | Previous Version | Text Only | Print | Product List | Glossary On
Versions: 1 2 3 4 5 6 7 8 9 10 11 12 13 14 15 16 17 18 19 20 21 22
212
FTUS41 KBGM 262337
TAFSYR
TAF
KSYR 262337Z 2700/2724 30005KT P6SM OVC015
      TEMPO 2700/2703 SCT015 OVC035
     FM270500 VRB03KT P6SM OVC012
      TEMPO 2708/2712 4SM BR OVC008
     FM271500 VRB03KT P6SM BKN045=

USA.gov is the U.S. government's official web portal to all federal, state and local government web resources and services.